createdAt,value
2019-05-12T00:00:07.966Z,1006.64
2019-05-12T00:01:09.132Z,1006.74
2019-05-12T00:02:07.704Z,1006.71
2019-05-12T00:03:08.473Z,1006.73
2019-05-12T00:04:08.249Z,1006.74
2019-05-12T00:05:08.708Z,1006.74
2019-05-12T00:06:08.762Z,1006.73
2019-05-12T00:07:08.734Z,1006.72
2019-05-12T00:08:08.271Z,1006.72
2019-05-12T00:09:08.397Z,1006.69
2019-05-12T00:10:08.616Z,1006.76
2019-05-12T00:11:08.793Z,1006.70
2019-05-12T00:12:08.253Z,1006.76
2019-05-12T00:13:08.387Z,1006.73
2019-05-12T00:14:08.609Z,1006.76
2019-05-12T00:15:08.171Z,1006.74
2019-05-12T00:16:08.700Z,1006.77
2019-05-12T00:17:08.188Z,1006.81
2019-05-12T00:18:08.861Z,1006.83
2019-05-12T00:19:09.089Z,1006.84
2019-05-12T00:20:08.494Z,1006.90
2019-05-12T00:21:08.663Z,1006.87
2019-05-12T00:22:07.689Z,1006.94
2019-05-12T00:23:23.412Z,1006.91
2019-05-12T00:24:08.032Z,1006.89
2019-05-12T00:25:08.635Z,1006.90
2019-05-12T00:26:07.982Z,1006.92
2019-05-12T00:27:08.435Z,1006.93
2019-05-12T00:28:07.826Z,1006.94
2019-05-12T00:29:07.674Z,1006.93
2019-05-12T00:30:09.971Z,1006.96
2019-05-12T00:31:08.408Z,1006.98
2019-05-12T00:32:08.466Z,1006.96
2019-05-12T00:33:08.928Z,1007.03
2019-05-12T00:34:07.783Z,1006.99
2019-05-12T00:35:07.813Z,1007.08
2019-05-12T00:36:08.065Z,1007.07
2019-05-12T00:37:08.334Z,1007.08
2019-05-12T00:38:08.677Z,1007.13
2019-05-12T00:39:08.569Z,1007.16
2019-05-12T00:40:08.213Z,1007.14
2019-05-12T00:41:08.640Z,1007.11
2019-05-12T00:42:07.831Z,1007.11
2019-05-12T00:43:08.444Z,1007.11
2019-05-12T00:44:08.206Z,1007.20
2019-05-12T00:45:08.114Z,1007.20
2019-05-12T00:46:07.925Z,1007.24
2019-05-12T00:47:08.137Z,1007.32
2019-05-12T00:48:08.747Z,1007.30
2019-05-12T00:49:08.047Z,1007.30
2019-05-12T00:50:08.011Z,1007.36
2019-05-12T00:51:07.749Z,1007.34
2019-05-12T00:52:08.056Z,1007.40
2019-05-12T00:53:08.623Z,1007.44
2019-05-12T00:54:08.871Z,1007.46
2019-05-12T00:55:07.908Z,1007.49
2019-05-12T00:56:08.333Z,1007.51
2019-05-12T00:57:07.743Z,1007.50
2019-05-12T00:58:08.297Z,1007.54
2019-05-12T00:59:08.280Z,1007.53
2019-05-12T01:00:08.221Z,1007.55
2019-05-12T01:01:08.135Z,1007.57
2019-05-12T01:02:07.946Z,1007.58
2019-05-12T01:03:08.421Z,1007.53
2019-05-12T01:04:08.527Z,1007.61
2019-05-12T01:05:08.396Z,1007.59
2019-05-12T01:06:08.311Z,1007.63
2019-05-12T01:07:08.521Z,1007.63
2019-05-12T01:08:08.492Z,1007.65
2019-05-12T01:09:08.560Z,1007.64
2019-05-12T01:10:08.454Z,1007.68
2019-05-12T01:11:08.646Z,1007.69
2019-05-12T01:12:07.943Z,1007.68
2019-05-12T01:13:08.275Z,1007.69
2019-05-12T01:14:08.323Z,1007.72
2019-05-12T01:15:07.507Z,1007.70
2019-05-12T01:16:07.943Z,1007.71
2019-05-12T01:17:08.278Z,1007.75
2019-05-12T01:18:05.979Z,1007.72
2019-05-12T01:19:07.990Z,1007.73
2019-05-12T01:20:05.936Z,1007.75
2019-05-12T01:21:07.764Z,1007.72
2019-05-12T01:22:08.101Z,1007.77
2019-05-12T01:23:08.241Z,1007.74
2019-05-12T01:24:08.328Z,1007.83
2019-05-12T01:25:08.357Z,1007.82
2019-05-12T01:26:05.871Z,1007.85
2019-05-12T01:27:05.856Z,1007.89
2019-05-12T01:28:07.926Z,1007.91
2019-05-12T01:29:08.240Z,1007.95
2019-05-12T01:30:05.830Z,1007.96
2019-05-12T01:31:05.816Z,1007.99
2019-05-12T01:32:07.952Z,1008.03
2019-05-12T01:33:08.259Z,1007.96
2019-05-12T01:34:07.959Z,1008.01
2019-05-12T01:35:07.950Z,1008.00
2019-05-12T01:36:07.984Z,1008.04
2019-05-12T01:37:07.876Z,1008.06
2019-05-12T01:38:07.797Z,1008.13
2019-05-12T01:39:08.187Z,1008.12
2019-05-12T01:40:08.500Z,1008.15
2019-05-12T01:41:05.759Z,1008.16
2019-05-12T01:42:05.726Z,1008.16
2019-05-12T01:43:08.248Z,1008.19
2019-05-12T01:44:05.670Z,1008.21
2019-05-12T01:45:05.659Z,1008.12
2019-05-12T01:46:07.894Z,1008.18
2019-05-12T01:47:08.244Z,1008.25
2019-05-12T01:48:08.327Z,1008.21
2019-05-12T01:49:07.983Z,1008.24
2019-05-12T01:50:05.605Z,1008.29
2019-05-12T01:51:05.597Z,1008.29
2019-05-12T01:52:05.587Z,1008.26
2019-05-12T01:53:07.887Z,1008.30
2019-05-12T01:54:11.667Z,1008.23
2019-05-12T01:55:08.175Z,1008.28
2019-05-12T01:56:07.719Z,1008.25
2019-05-12T01:57:07.967Z,1008.33
2019-05-12T01:58:05.519Z,1008.33
2019-05-12T01:59:07.932Z,1008.30
2019-05-12T02:00:07.926Z,1008.31
2019-05-12T02:01:05.489Z,1008.31
2019-05-12T02:02:05.479Z,1008.36
2019-05-12T02:03:05.468Z,1008.37
2019-05-12T02:04:07.588Z,1008.38
2019-05-12T02:05:08.233Z,1008.44
2019-05-12T02:06:05.450Z,1008.38
2019-05-12T02:07:05.422Z,1008.47
2019-05-12T02:08:05.414Z,1008.44
2019-05-12T02:09:05.399Z,1008.41
2019-05-12T02:10:05.388Z,1008.42
2019-05-12T02:11:07.854Z,1008.49
2019-05-12T02:12:05.376Z,1008.43
2019-05-12T02:13:07.729Z,1008.48
2019-05-12T02:14:05.351Z,1008.48
2019-05-12T02:15:07.995Z,1008.53
2019-05-12T02:16:05.327Z,1008.60
2019-05-12T02:17:05.381Z,1008.66
2019-05-12T02:18:05.314Z,1008.65
2019-05-12T02:19:05.291Z,1008.64
2019-05-12T02:20:07.613Z,1008.72
2019-05-12T02:21:05.267Z,1008.67
2019-05-12T02:22:05.266Z,1008.68
2019-05-12T02:23:05.314Z,1008.74
2019-05-12T02:24:07.596Z,1008.74
2019-05-12T02:25:07.925Z,1008.80
2019-05-12T02:26:05.216Z,1008.82
2019-05-12T02:27:05.206Z,1008.78
2019-05-12T02:28:05.200Z,1008.77
2019-05-12T02:29:07.703Z,1008.79
2019-05-12T02:30:09.293Z,1008.76
2019-05-12T02:31:05.162Z,1008.72
2019-05-12T02:32:05.151Z,1008.81
2019-05-12T02:33:05.429Z,1008.86
2019-05-12T02:34:05.783Z,1008.84
2019-05-12T02:35:05.871Z,1008.84
2019-05-12T02:36:05.124Z,1008.89
2019-05-12T02:37:05.536Z,1008.95
2019-05-12T02:38:05.498Z,1008.96
2019-05-12T02:39:05.441Z,1008.94
2019-05-12T02:40:05.082Z,1009.00
2019-05-12T02:41:05.096Z,1008.97
2019-05-12T02:42:05.311Z,1008.94
2019-05-12T02:43:05.776Z,1008.92
2019-05-12T02:44:05.526Z,1008.92
2019-05-12T02:45:05.690Z,1008.98
2019-05-12T02:46:05.063Z,1008.97
2019-05-12T02:47:05.320Z,1009.00
2019-05-12T02:48:05.609Z,1008.99
2019-05-12T02:49:05.271Z,1009.04
2019-05-12T02:50:05.459Z,1009.01
2019-05-12T02:51:05.699Z,1009.02
2019-05-12T02:52:05.229Z,1009.00
2019-05-12T02:53:05.411Z,1009.04
2019-05-12T02:54:05.454Z,1009.05
2019-05-12T02:55:06.227Z,1009.06
2019-05-12T02:56:05.205Z,1009.07
2019-05-12T02:57:04.895Z,1009.11
2019-05-12T02:58:05.787Z,1009.12
2019-05-12T02:59:05.677Z,1009.12
2019-05-12T03:00:05.312Z,1009.15
2019-05-12T03:01:05.579Z,1009.15
2019-05-12T03:02:05.405Z,1009.14
2019-05-12T03:03:05.533Z,1009.13
2019-05-12T03:04:05.904Z,1009.17
2019-05-12T03:05:05.690Z,1009.16
2019-05-12T03:06:05.640Z,1009.18
2019-05-12T03:07:06.473Z,1009.12
2019-05-12T03:08:05.199Z,1009.17
2019-05-12T03:09:05.001Z,1009.19
2019-05-12T03:10:05.210Z,1009.19
2019-05-12T03:11:06.002Z,1009.18
2019-05-12T03:12:05.955Z,1009.19
2019-05-12T03:13:04.796Z,1009.21
2019-05-12T03:14:04.704Z,1009.16
2019-05-12T03:15:05.634Z,1009.21
2019-05-12T03:16:05.224Z,1009.23
2019-05-12T03:17:04.874Z,1009.23
2019-05-12T03:18:06.367Z,1009.25
2019-05-12T03:19:05.273Z,1009.25
2019-05-12T03:20:05.127Z,1009.27
2019-05-12T03:21:05.825Z,1009.30
2019-05-12T03:22:05.165Z,1009.29
2019-05-12T03:23:06.330Z,1009.31
2019-05-12T03:24:06.099Z,1009.33
2019-05-12T03:25:15.510Z,1009.37
2019-05-12T03:26:05.566Z,1009.36
2019-05-12T03:27:04.569Z,1009.34
2019-05-12T03:28:08.273Z,1009.34
2019-05-12T03:29:05.714Z,1009.34
2019-05-12T03:30:10.091Z,1009.34
2019-05-12T03:31:07.925Z,1009.41
2019-05-12T03:32:08.240Z,1009.47
2019-05-12T03:33:09.170Z,1009.41
2019-05-12T03:34:09.137Z,1009.48
2019-05-12T03:35:08.736Z,1009.51
2019-05-12T03:36:09.088Z,1009.48
2019-05-12T03:37:07.695Z,1009.51
2019-05-12T03:38:04.558Z,1009.53
2019-05-12T03:39:04.452Z,1009.48
2019-05-12T03:40:05.491Z,1009.47
2019-05-12T03:41:05.333Z,1009.48
2019-05-12T03:42:05.265Z,1009.49
2019-05-12T03:43:05.376Z,1009.53
2019-05-12T03:44:05.322Z,1009.53
2019-05-12T03:45:04.832Z,1009.55
2019-05-12T03:46:05.415Z,1009.60
2019-05-12T03:47:05.206Z,1009.64
2019-05-12T03:48:04.490Z,1009.61
2019-05-12T03:49:05.412Z,1009.60
2019-05-12T03:50:04.791Z,1009.59
2019-05-12T03:51:05.748Z,1009.65
2019-05-12T03:52:05.183Z,1009.71
2019-05-12T03:53:09.810Z,1009.63
2019-05-12T03:54:05.497Z,1009.72
2019-05-12T03:55:05.548Z,1009.75
2019-05-12T03:56:04.556Z,1009.74
2019-05-12T03:57:04.612Z,1009.74
2019-05-12T03:58:04.612Z,1009.80
2019-05-12T03:59:05.026Z,1009.78
2019-05-12T04:00:05.138Z,1009.81
2019-05-12T04:01:04.815Z,1009.84
2019-05-12T04:02:04.925Z,1009.83
2019-05-12T04:03:05.001Z,1009.80
2019-05-12T04:04:05.131Z,1009.85
2019-05-12T04:05:05.216Z,1009.89
2019-05-12T04:06:04.845Z,1009.86
2019-05-12T04:07:05.159Z,1009.87
2019-05-12T04:08:05.561Z,1009.89
2019-05-12T04:09:04.764Z,1009.96
2019-05-12T04:10:05.169Z,1009.92
2019-05-12T04:11:05.324Z,1009.96
2019-05-12T04:12:05.255Z,1009.99
2019-05-12T04:13:04.724Z,1010.02
2019-05-12T04:14:05.506Z,1010.00
2019-05-12T04:15:05.129Z,1009.99
2019-05-12T04:16:05.020Z,1009.99
2019-05-12T04:17:04.897Z,1009.97
2019-05-12T04:18:05.715Z,1010.01
2019-05-12T04:19:05.282Z,1009.98
2019-05-12T04:20:04.921Z,1010.00
2019-05-12T04:21:05.449Z,1010.01
2019-05-12T04:22:05.472Z,1010.03
2019-05-12T04:23:05.811Z,1010.07
2019-05-12T04:24:05.462Z,1010.12
2019-05-12T04:25:06.082Z,1010.13
2019-05-12T04:26:10.998Z,1010.23
2019-05-12T04:27:05.439Z,1010.21
2019-05-12T04:28:04.786Z,1010.24
2019-05-12T04:29:05.087Z,1010.29
2019-05-12T04:30:05.452Z,1010.31
2019-05-12T04:31:05.477Z,1010.31
2019-05-12T04:32:05.077Z,1010.34
2019-05-12T04:33:04.932Z,1010.32
2019-05-12T04:34:05.175Z,1010.36
2019-05-12T04:35:04.805Z,1010.40
2019-05-12T04:36:05.562Z,1010.45
2019-05-12T04:37:04.573Z,1010.46
2019-05-12T04:38:04.570Z,1010.51
2019-05-12T04:39:04.367Z,1010.49
2019-05-12T04:40:05.469Z,1010.50
2019-05-12T04:41:05.798Z,1010.49
2019-05-12T04:42:05.319Z,1010.50
2019-05-12T04:43:05.907Z,1010.54
2019-05-12T04:44:05.831Z,1010.51
2019-05-12T04:45:04.585Z,1010.51
2019-05-12T04:46:05.095Z,1010.55
2019-05-12T04:47:05.548Z,1010.55
2019-05-12T04:48:05.154Z,1010.57
2019-05-12T04:49:05.248Z,1010.63
2019-05-12T04:50:05.393Z,1010.64
2019-05-12T04:51:05.033Z,1010.63
2019-05-12T04:52:05.312Z,1010.65
2019-05-12T04:53:06.033Z,1010.67
2019-05-12T04:54:05.751Z,1010.67
2019-05-12T04:55:04.692Z,1010.67
2019-05-12T04:56:15.287Z,1010.72
2019-05-12T04:57:04.650Z,1010.73
2019-05-12T04:58:04.432Z,1010.74
2019-05-12T04:59:04.927Z,1010.78
2019-05-12T05:00:05.116Z,1010.78
2019-05-12T05:01:06.355Z,1010.76
2019-05-12T05:02:05.495Z,1010.79
2019-05-12T05:03:05.075Z,1010.76
2019-05-12T05:04:05.417Z,1010.79
2019-05-12T05:05:05.379Z,1010.81
2019-05-12T05:06:04.472Z,1010.85
2019-05-12T05:07:04.503Z,1010.87
2019-05-12T05:08:04.411Z,1010.89
2019-05-12T05:09:05.054Z,1010.88
2019-05-12T05:10:04.699Z,1010.86
2019-05-12T05:11:04.137Z,1010.86
2019-05-12T05:12:04.570Z,1010.87
2019-05-12T05:13:05.142Z,1010.93
2019-05-12T05:14:04.242Z,1010.94
2019-05-12T05:15:05.376Z,1010.93
2019-05-12T05:16:05.384Z,1010.93
2019-05-12T05:17:05.566Z,1010.91
2019-05-12T05:18:06.399Z,1010.99
2019-05-12T05:19:03.731Z,1010.92
2019-05-12T05:20:04.068Z,1010.95
2019-05-12T05:21:04.682Z,1010.97
2019-05-12T05:22:04.333Z,1011.01
2019-05-12T05:23:03.753Z,1011.06
2019-05-12T05:24:03.914Z,1011.08
2019-05-12T05:25:04.267Z,1011.11
2019-05-12T05:26:03.408Z,1011.12
2019-05-12T05:27:04.429Z,1011.17
2019-05-12T05:28:03.938Z,1011.21
2019-05-12T05:29:04.290Z,1011.25
2019-05-12T05:30:03.942Z,1011.19
2019-05-12T05:31:03.649Z,1011.19
2019-05-12T05:32:03.582Z,1011.21
2019-05-12T05:33:04.479Z,1011.21
2019-05-12T05:34:04.697Z,1011.23
2019-05-12T05:35:04.648Z,1011.25
2019-05-12T05:36:03.569Z,1011.30
2019-05-12T05:37:05.053Z,1011.28
2019-05-12T05:38:04.454Z,1011.34
2019-05-12T05:39:04.318Z,1011.31
2019-05-12T05:40:03.983Z,1011.36
2019-05-12T05:41:05.945Z,1011.36
2019-05-12T05:42:04.627Z,1011.37
2019-05-12T05:43:12.246Z,1011.39
2019-05-12T05:44:04.130Z,1011.40
2019-05-12T05:45:04.912Z,1011.46
2019-05-12T05:46:07.909Z,1011.44
2019-05-12T05:47:04.434Z,1011.48
2019-05-12T05:48:07.426Z,1011.51
2019-05-12T05:49:04.286Z,1011.46
2019-05-12T05:50:04.777Z,1011.46
2019-05-12T05:51:05.647Z,1011.51
2019-05-12T05:52:03.983Z,1011.54
2019-05-12T05:53:03.859Z,1011.56
2019-05-12T05:54:03.944Z,1011.57
2019-05-12T05:55:05.767Z,1011.51
2019-05-12T05:56:04.164Z,1011.57
2019-05-12T05:57:06.012Z,1011.56
2019-05-12T05:58:07.787Z,1011.59
2019-05-12T05:59:04.773Z,1011.67
2019-05-12T06:00:07.263Z,1011.67
2019-05-12T06:01:07.943Z,1011.66
2019-05-12T06:02:04.940Z,1011.70
2019-05-12T06:03:05.251Z,1011.72
2019-05-12T06:04:04.329Z,1011.70
2019-05-12T06:05:04.518Z,1011.68
2019-05-12T06:06:10.395Z,1011.67
2019-05-12T06:07:04.180Z,1011.74
2019-05-12T06:08:04.206Z,1011.70
2019-05-12T06:09:03.735Z,1011.68
2019-05-12T06:10:04.071Z,1011.66
2019-05-12T06:11:04.816Z,1011.67
2019-05-12T06:12:05.215Z,1011.69
2019-05-12T06:13:04.207Z,1011.64
2019-05-12T06:14:11.015Z,1011.63
2019-05-12T06:15:04.205Z,1011.69
2019-05-12T06:16:04.378Z,1011.70
2019-05-12T06:17:04.295Z,1011.72
2019-05-12T06:18:03.601Z,1011.73
2019-05-12T06:19:03.490Z,1011.72
2019-05-12T06:20:04.373Z,1011.77
2019-05-12T06:21:03.473Z,1011.77
2019-05-12T06:22:03.951Z,1011.77
2019-05-12T06:23:04.283Z,1011.79
2019-05-12T06:24:03.486Z,1011.79
2019-05-12T06:25:04.938Z,1011.85
2019-05-12T06:26:04.391Z,1011.76
2019-05-12T06:27:14.303Z,1011.76
2019-05-12T06:28:04.550Z,1011.76
2019-05-12T06:29:04.430Z,1011.77
2019-05-12T06:30:05.946Z,1011.83
2019-05-12T06:31:04.239Z,1011.81
2019-05-12T06:32:06.205Z,1011.86
2019-05-12T06:33:04.202Z,1011.77
2019-05-12T06:34:07.957Z,1011.84
2019-05-12T06:35:04.527Z,1011.86
2019-05-12T06:36:04.447Z,1011.82
2019-05-12T06:37:11.628Z,1011.87
2019-05-12T06:38:05.092Z,1011.89
2019-05-12T06:39:04.362Z,1011.93
2019-05-12T06:40:03.586Z,1011.92
2019-05-12T06:41:03.604Z,1011.98
2019-05-12T06:42:12.330Z,1012.02
2019-05-12T06:43:04.305Z,1012.03
2019-05-12T06:44:03.750Z,1012.08
2019-05-12T06:45:03.770Z,1012.10
2019-05-12T06:46:03.656Z,1012.11
2019-05-12T06:47:07.079Z,1012.11
2019-05-12T06:48:03.500Z,1012.15
2019-05-12T06:49:11.984Z,1012.17
2019-05-12T06:50:03.870Z,1012.17
2019-05-12T06:51:04.042Z,1012.18
2019-05-12T06:52:06.873Z,1012.21
2019-05-12T06:53:04.711Z,1012.18
2019-05-12T06:54:07.425Z,1012.23
2019-05-12T06:55:03.989Z,1012.24
2019-05-12T06:56:04.384Z,1012.16
2019-05-12T06:57:18.607Z,1012.22
2019-05-12T06:58:04.731Z,1012.18
2019-05-12T06:59:09.923Z,1012.20
2019-05-12T07:00:04.603Z,1012.17
2019-05-12T07:01:10.163Z,1012.22
2019-05-12T07:02:03.458Z,1012.26
2019-05-12T07:03:03.924Z,1012.29
2019-05-12T07:04:06.800Z,1012.29
2019-05-12T07:05:04.362Z,1012.32
2019-05-12T07:06:04.087Z,1012.28
2019-05-12T07:07:03.615Z,1012.29
2019-05-12T07:08:04.154Z,1012.31
2019-05-12T07:09:09.060Z,1012.26
2019-05-12T07:10:11.856Z,1012.27
2019-05-12T07:11:05.948Z,1012.32
2019-05-12T07:12:06.649Z,1012.35
2019-05-12T07:13:05.602Z,1012.35
2019-05-12T07:14:08.022Z,1012.38
2019-05-12T07:15:03.819Z,1012.41
2019-05-12T07:16:03.744Z,1012.41
2019-05-12T07:17:05.683Z,1012.42
2019-05-12T07:18:04.045Z,1012.44
2019-05-12T07:19:07.609Z,1012.42
2019-05-12T07:20:03.992Z,1012.44
2019-05-12T07:21:04.012Z,1012.45
2019-05-12T07:22:03.583Z,1012.49
2019-05-12T07:23:03.979Z,1012.43
2019-05-12T07:24:06.633Z,1012.45
2019-05-12T07:25:04.543Z,1012.38
2019-05-12T07:26:04.776Z,1012.37
2019-05-12T07:27:08.761Z,1012.41
2019-05-12T07:28:07.571Z,1012.44
2019-05-12T07:29:04.450Z,1012.46
2019-05-12T07:30:01.931Z,1012.45
2019-05-12T07:31:03.797Z,1012.46
2019-05-12T07:32:07.278Z,1012.53
2019-05-12T07:33:04.522Z,1012.49
2019-05-12T07:34:05.281Z,1012.48
2019-05-12T07:35:03.909Z,1012.48
2019-05-12T07:36:06.208Z,1012.45
2019-05-12T07:37:04.253Z,1012.46
2019-05-12T07:38:04.246Z,1012.48
2019-05-12T07:39:06.226Z,1012.43
2019-05-12T07:40:04.854Z,1012.45
2019-05-12T07:41:08.833Z,1012.45
2019-05-12T07:42:03.657Z,1012.49
2019-05-12T07:43:03.757Z,1012.53
2019-05-12T07:44:03.553Z,1012.52
2019-05-12T07:45:03.795Z,1012.56
2019-05-12T07:46:03.169Z,1012.56
2019-05-12T07:47:03.636Z,1012.53
2019-05-12T07:48:05.730Z,1012.55
2019-05-12T07:49:03.942Z,1012.53
2019-05-12T07:50:04.312Z,1012.55
2019-05-12T07:51:03.998Z,1012.52
2019-05-12T07:52:03.654Z,1012.52
2019-05-12T07:53:04.025Z,1012.54
2019-05-12T07:54:03.880Z,1012.55
2019-05-12T07:55:04.123Z,1012.54
2019-05-12T07:56:03.957Z,1012.51
2019-05-12T07:57:05.374Z,1012.56
2019-05-12T07:58:10.208Z,1012.55
2019-05-12T07:59:04.380Z,1012.61
2019-05-12T08:00:03.640Z,1012.62
2019-05-12T08:01:02.728Z,1012.63
2019-05-12T08:02:03.749Z,1012.56
2019-05-12T08:03:08.030Z,1012.58
2019-05-12T08:04:04.568Z,1012.55
2019-05-12T08:05:03.894Z,1012.56
2019-05-12T08:06:04.043Z,1012.57
2019-05-12T08:07:03.748Z,1012.61
2019-05-12T08:08:08.717Z,1012.66
2019-05-12T08:09:04.173Z,1012.60
2019-05-12T08:10:07.204Z,1012.62
2019-05-12T08:11:04.405Z,1012.63
2019-05-12T08:12:03.475Z,1012.59
2019-05-12T08:13:01.436Z,1012.66
2019-05-12T08:14:03.490Z,1012.64
2019-05-12T08:15:07.739Z,1012.67
2019-05-12T08:16:03.692Z,1012.61
2019-05-12T08:17:10.456Z,1012.62
2019-05-12T08:18:07.489Z,1012.66
2019-05-12T08:19:03.967Z,1012.63
2019-05-12T08:20:01.365Z,1012.65
2019-05-12T08:21:03.602Z,1012.68
2019-05-12T08:22:01.341Z,1012.62
2019-05-12T08:23:05.734Z,1012.65
2019-05-12T08:24:03.751Z,1012.66
2019-05-12T08:25:01.312Z,1012.64
2019-05-12T08:26:03.763Z,1012.66
2019-05-12T08:27:06.210Z,1012.72
2019-05-12T08:28:12.423Z,1012.70
2019-05-12T08:29:04.266Z,1012.73
2019-05-12T08:30:03.011Z,1012.71
2019-05-12T08:31:03.461Z,1012.74
2019-05-12T08:32:03.648Z,1012.77
2019-05-12T08:33:03.820Z,1012.73
2019-05-12T08:34:04.195Z,1012.76
2019-05-12T08:35:01.236Z,1012.70
2019-05-12T08:36:03.131Z,1012.68
2019-05-12T08:37:04.156Z,1012.74
2019-05-12T08:38:03.640Z,1012.76
2019-05-12T08:39:03.836Z,1012.74
2019-05-12T08:40:04.044Z,1012.70
2019-05-12T08:41:04.282Z,1012.72
2019-05-12T08:42:01.111Z,1012.76
2019-05-12T08:43:08.203Z,1012.76
2019-05-12T08:44:04.443Z,1012.80
2019-05-12T08:45:03.885Z,1012.80
2019-05-12T08:46:06.998Z,1012.81
2019-05-12T08:47:03.954Z,1012.78
2019-05-12T08:48:03.683Z,1012.83
2019-05-12T08:49:03.043Z,1012.77
2019-05-12T08:50:01.033Z,1012.82
2019-05-12T08:51:05.239Z,1012.93
2019-05-12T08:52:03.895Z,1012.94
2019-05-12T08:53:01.042Z,1012.86
2019-05-12T08:54:03.191Z,1012.92
2019-05-12T08:55:04.096Z,1012.93
2019-05-12T08:56:05.025Z,1012.92
2019-05-12T08:57:03.834Z,1012.95
2019-05-12T08:58:00.959Z,1012.89
2019-05-12T08:59:00.961Z,1012.88
2019-05-12T09:00:03.299Z,1012.92
2019-05-12T09:01:04.255Z,1012.96
2019-05-12T09:02:05.753Z,1012.96
2019-05-12T09:03:03.576Z,1012.89
2019-05-12T09:04:06.685Z,1012.89
2019-05-12T09:05:04.433Z,1012.85
2019-05-12T09:06:00.847Z,1012.82
2019-05-12T09:07:00.922Z,1012.89
2019-05-12T09:08:00.824Z,1012.89
2019-05-12T09:09:00.855Z,1012.89
2019-05-12T09:10:00.794Z,1012.92
2019-05-12T09:11:00.829Z,1012.96
2019-05-12T09:12:00.784Z,1012.94
2019-05-12T09:13:00.768Z,1012.98
2019-05-12T09:14:02.936Z,1012.96
2019-05-12T09:15:00.754Z,1012.98
2019-05-12T09:16:00.733Z,1012.96
2019-05-12T09:17:03.950Z,1013.02
2019-05-12T09:18:04.384Z,1013.03
2019-05-12T09:19:00.716Z,1013.01
2019-05-12T09:20:06.056Z,1013.05
2019-05-12T09:21:03.837Z,1012.99
2019-05-12T09:22:05.500Z,1013.02
2019-05-12T09:23:02.774Z,1013.04
2019-05-12T09:24:00.645Z,1013.05
2019-05-12T09:25:06.347Z,1012.98
2019-05-12T09:26:03.710Z,1013.01
2019-05-12T09:27:06.903Z,1013.04
2019-05-12T09:28:03.572Z,1013.04
2019-05-12T09:29:00.632Z,1013.03
2019-05-12T09:30:07.672Z,1013.03
2019-05-12T09:31:03.572Z,1013.06
2019-05-12T09:32:05.332Z,1013.05
2019-05-12T09:33:03.738Z,1013.18
2019-05-12T09:34:05.914Z,1013.02
2019-05-12T09:35:03.786Z,1013.00
2019-05-12T09:36:00.650Z,1013.01
2019-05-12T09:37:01.118Z,1012.99
2019-05-12T09:38:02.981Z,1012.96
2019-05-12T09:39:02.959Z,1013.03
2019-05-12T09:40:00.484Z,1013.08
2019-05-12T09:41:01.380Z,1013.06
2019-05-12T09:42:00.452Z,1013.06
2019-05-12T09:43:08.632Z,1013.02
2019-05-12T09:44:02.458Z,1013.08
2019-05-12T09:45:08.132Z,1013.02
2019-05-12T09:46:03.794Z,1013.09
2019-05-12T09:47:00.476Z,1013.06
2019-05-12T09:48:04.902Z,1013.08
2019-05-12T09:49:01.400Z,1013.10
2019-05-12T09:50:00.369Z,1013.10
2019-05-12T09:51:01.998Z,1013.13
2019-05-12T09:52:00.461Z,1013.12
2019-05-12T09:53:00.713Z,1013.18
2019-05-12T09:54:01.351Z,1013.15
2019-05-12T09:55:00.312Z,1013.16
2019-05-12T09:56:00.289Z,1013.14
2019-05-12T09:57:00.279Z,1013.17
2019-05-12T09:58:00.312Z,1013.12
2019-05-12T09:59:02.702Z,1013.18
2019-05-12T10:00:01.255Z,1013.25
2019-05-12T10:01:00.244Z,1013.25
2019-05-12T10:02:00.232Z,1013.23
2019-05-12T10:03:00.842Z,1013.29
2019-05-12T10:04:00.247Z,1013.25
2019-05-12T10:05:00.909Z,1013.20
2019-05-12T10:06:00.179Z,1013.20
2019-05-12T10:07:00.166Z,1013.22
2019-05-12T10:08:00.159Z,1013.26
2019-05-12T10:09:00.156Z,1013.19
2019-05-12T10:10:00.336Z,1013.24
2019-05-12T10:11:00.128Z,1013.26
2019-05-12T10:12:01.168Z,1013.21
2019-05-12T10:13:00.097Z,1013.26
2019-05-12T10:14:05.172Z,1013.30
2019-05-12T10:15:01.120Z,1013.25
2019-05-12T10:16:07.399Z,1013.24
2019-05-12T10:17:03.425Z,1013.24
2019-05-12T10:18:05.298Z,1013.28
2019-05-12T10:19:01.031Z,1013.26
2019-05-12T10:20:00.025Z,1013.27
2019-05-12T10:21:00.051Z,1013.34
2019-05-12T10:22:00.016Z,1013.30
2019-05-12T10:22:59.989Z,1013.30
2019-05-12T10:24:02.087Z,1013.27
2019-05-12T10:25:00.066Z,1013.34
2019-05-12T10:26:01.542Z,1013.29
2019-05-12T10:27:03.559Z,1013.30
2019-05-12T10:28:05.318Z,1013.35
2019-05-12T10:29:14.128Z,1013.33
2019-05-12T10:30:05.580Z,1013.29
2019-05-12T10:31:00.920Z,1013.27
2019-05-12T10:31:59.896Z,1013.44
2019-05-12T10:32:59.936Z,1013.41
2019-05-12T10:33:59.873Z,1013.40
2019-05-12T10:34:59.861Z,1013.38
2019-05-12T10:36:06.836Z,1013.39
2019-05-12T10:37:00.845Z,1013.42
2019-05-12T10:38:00.235Z,1013.42
2019-05-12T10:39:00.851Z,1013.43
2019-05-12T10:39:59.809Z,1013.39
2019-05-12T10:40:59.800Z,1013.38
2019-05-12T10:41:59.786Z,1013.37
2019-05-12T10:42:59.776Z,1013.35
2019-05-12T10:43:59.774Z,1013.37
2019-05-12T10:44:59.790Z,1013.35
2019-05-12T10:45:59.740Z,1013.34
2019-05-12T10:46:59.731Z,1013.26
2019-05-12T10:47:59.717Z,1013.29
2019-05-12T10:48:59.713Z,1013.32
2019-05-12T10:49:59.706Z,1013.29
2019-05-12T10:50:59.729Z,1013.33
2019-05-12T10:51:59.673Z,1013.22
2019-05-12T10:52:59.669Z,1013.23
2019-05-12T10:54:07.723Z,1013.37
2019-05-12T10:55:00.641Z,1013.32
2019-05-12T10:55:59.637Z,1013.37
2019-05-12T10:56:59.681Z,1013.24
2019-05-12T10:58:01.803Z,1013.32
2019-05-12T10:59:00.603Z,1013.41
2019-05-12T10:59:59.591Z,1013.35
2019-05-12T11:01:05.290Z,1013.38
2019-05-12T11:02:00.607Z,1013.38
2019-05-12T11:03:01.463Z,1013.36
2019-05-12T11:04:00.560Z,1013.21
2019-05-12T11:04:59.550Z,1013.30
2019-05-12T11:06:02.528Z,1013.31
2019-05-12T11:07:00.510Z,1013.20
2019-05-12T11:08:00.295Z,1013.21
2019-05-12T11:09:00.491Z,1013.32
2019-05-12T11:10:05.170Z,1013.31
2019-05-12T11:11:01.376Z,1013.30
2019-05-12T11:11:59.491Z,1013.30
2019-05-12T11:13:59.553Z,1013.43
2019-05-12T11:15:06.299Z,1013.45
2019-05-12T11:16:00.412Z,1013.54
2019-05-12T11:17:02.107Z,1013.52
2019-05-12T11:18:00.404Z,1013.52
2019-05-12T11:19:00.238Z,1013.29
2019-05-12T11:20:00.483Z,1013.28
2019-05-12T11:20:59.568Z,1013.38
2019-05-12T11:22:03.503Z,1013.35
2019-05-12T11:23:00.335Z,1013.55
2019-05-12T11:23:59.333Z,1013.38
2019-05-12T11:24:59.313Z,1013.38
2019-05-12T11:25:59.389Z,1013.34
2019-05-12T11:26:59.322Z,1013.39
2019-05-12T11:27:59.279Z,1013.37
2019-05-12T11:28:59.267Z,1013.53
2019-05-12T11:29:59.260Z,1013.25
2019-05-12T11:30:59.245Z,1013.35
2019-05-12T11:31:59.299Z,1013.35
2019-05-12T11:32:59.764Z,1013.56
2019-05-12T11:33:59.212Z,1013.42
2019-05-12T11:34:59.397Z,1013.41
2019-05-12T11:35:59.262Z,1013.60
2019-05-12T11:36:59.192Z,1013.37
2019-05-12T11:37:59.233Z,1013.33
2019-05-12T11:38:59.155Z,1013.34
2019-05-12T11:39:59.215Z,1013.36
2019-05-12T11:40:59.136Z,1013.39
2019-05-12T11:41:59.131Z,1013.38
2019-05-12T11:43:01.126Z,1013.40
2019-05-12T11:43:59.130Z,1013.45
2019-05-12T11:44:59.094Z,1013.61
2019-05-12T11:45:59.085Z,1013.55
2019-05-12T11:46:59.070Z,1013.63
2019-05-12T11:48:05.179Z,1013.61
2019-05-12T11:49:00.419Z,1013.44
2019-05-12T11:50:05.203Z,1013.49
2019-05-12T11:51:00.025Z,1013.69
2019-05-12T11:52:01.049Z,1013.68
2019-05-12T11:53:00.015Z,1013.63
2019-05-12T11:54:03.598Z,1013.41
2019-05-12T11:55:00.032Z,1013.43
2019-05-12T11:56:02.365Z,1013.51
2019-05-12T11:56:59.978Z,1013.48
2019-05-12T11:58:00.250Z,1013.78
2019-05-12T11:58:59.946Z,1013.51
2019-05-12T12:00:02.017Z,1013.76
2019-05-12T12:01:06.401Z,1013.45
2019-05-12T12:01:59.996Z,1013.58
2019-05-12T12:03:03.767Z,1013.76
2019-05-12T12:03:59.884Z,1013.46
2019-05-12T12:04:58.874Z,1013.49
2019-05-12T12:05:58.864Z,1013.55